Time;durP1;ratioP1;P1;durP2;ratioP2;P2;SDS_P1;SDS_P2;PMS_P1;PMS_P2;Temp;Humidity;BMP_temperature;BMP_pressure;BME280_temperature;BME280_humidity;BME280_pressure;Samples;Min_cycle;Max_cycle;Signal;HPM_P1;HPM_P2
2022/08/04 00:01:48;;;;;;;10.25;5.38;;;665.90;1612.80;;;;;;4994163;28;20525;-81
2022/08/04 00:04:54;;;;;;;10.30;5.53;;;666.00;1612.80;;;;;;4984709;28;20414;-81
2022/08/04 00:07:35;;;;;;;11.60;5.63;;;666.00;1612.80;;;;;;4943645;28;20501;-79
2022/08/04 00:10:04;;;;;;;8.18;4.80;;;665.80;1664.00;;;;;;4955707;29;20027;-81
2022/08/04 00:12:32;;;;;;;8.77;5.13;;;665.80;1715.20;;;;;;4955305;29;20067;-80
2022/08/04 00:14:59;;;;;;;14.30;5.07;;;665.80;1715.20;;;;;;4955656;29;20110;-80
2022/08/04 00:17:31;;;;;;;8.23;5.55;;;665.70;1740.80;;;;;;4955737;28;20038;-82
2022/08/04 00:19:59;;;;;;;9.98;4.78;;;665.80;1740.80;;;;;;4954954;29;20034;-80
2022/08/04 00:22:30;;;;;;;11.25;5.15;;;665.80;1740.80;;;;;;4955448;29;20047;-81
2022/08/04 00:24:57;;;;;;;7.07;4.72;;;665.80;1740.80;;;;;;4955463;29;20035;-78
2022/08/04 00:27:23;;;;;;;7.50;5.00;;;665.70;1740.80;;;;;;4954835;29;20062;-80
2022/08/04 00:29:50;;;;;;;9.10;5.18;;;665.70;1740.80;;;;;;4955538;29;20489;-80
2022/08/04 00:32:17;;;;;;;6.22;4.35;;;665.70;1740.80;;;;;;4955308;29;20054;-80
2022/08/04 00:34:43;;;;;;;10.95;5.00;;;665.60;1740.80;;;;;;4955251;29;20027;-80
2022/08/04 00:37:09;;;;;;;8.63;4.45;;;640.90;1715.20;;;;;;4955445;29;20396;-81
2022/08/04 00:39:35;;;;;;;8.43;5.03;;;640.80;1715.20;;;;;;4954922;29;20031;-77
2022/08/04 00:42:28;;;;;;;7.30;5.10;;;640.90;1715.20;;;;;;4954989;29;20066;-81
2022/08/04 00:45:00;;;;;;;11.05;5.30;;;640.70;1715.20;;;;;;4967980;28;20046;-79
2022/08/04 00:48:03;;;;;;;8.57;5.13;;;640.70;1715.20;;;;;;4976242;28;20030;-79
2022/08/04 00:50:40;;;;;;;8.85;5.00;;;640.70;1715.20;;;;;;4976411;28;20027;-80
2022/08/04 00:53:08;;;;;;;10.63;4.78;;;640.70;1715.20;;;;;;4975236;28;20031;-81
2022/08/04 00:56:08;;;;;;;10.82;5.13;;;640.70;1715.20;;;;;;4974938;28;20085;-80
2022/08/04 00:58:41;;;;;;;8.20;4.85;;;640.70;1689.60;;;;;;4976385;28;20030;-80
2022/08/04 01:01:40;;;;;;;5.82;4.65;;;640.80;1715.20;;;;;;4976086;28;20110;-81
2022/08/04 01:04:37;;;;;;;7.63;5.07;;;640.80;1715.20;;;;;;4974730;28;20070;-82
2022/08/04 01:07:36;;;;;;;11.57;6.03;;;640.70;1715.20;;;;;;4974944;28;20039;-79
2022/08/04 01:10:08;;;;;;;8.32;4.82;;;640.70;1715.20;;;;;;4975688;28;20027;-82
2022/08/04 01:12:46;;;;;;;10.10;5.22;;;640.60;1715.20;;;;;;4973096;28;20034;-78
2022/08/04 01:15:36;;;;;;;12.43;4.90;;;640.90;1715.20;;;;;;4974941;28;20023;-82
2022/08/04 01:18:07;;;;;;;9.75;5.95;;;640.90;1715.20;;;;;;4974428;28;20165;-81
2022/08/04 01:21:00;;;;;;;7.65;5.70;;;640.80;1715.20;;;;;;4974618;28;20037;-80
2022/08/04 01:23:39;;;;;;;10.20;5.15;;;640.90;1740.80;;;;;;4972583;28;20173;-83
2022/08/04 01:26:18;;;;;;;8.35;5.82;;;640.80;1740.80;;;;;;4971165;28;20026;-79
2022/08/04 01:29:10;;;;;;;10.32;5.80;;;640.80;1740.80;;;;;;4970571;28;20023;-79
2022/08/04 01:31:51;;;;;;;8.90;5.47;;;640.80;1740.80;;;;;;4974371;28;20027;-80
2022/08/04 01:34:19;;;;;;;11.77;5.43;;;640.80;1740.80;;;;;;4974360;28;20073;-80
2022/08/04 01:37:02;;;;;;;16.15;6.18;;;640.80;1740.80;;;;;;4974466;28;20026;-81
2022/08/04 01:39:40;;;;;;;7.03;5.47;;;640.60;1766.40;;;;;;4972114;28;20518;-80
2022/08/04 01:42:08;;;;;;;7.82;5.28;;;640.60;1766.40;;;;;;4971877;28;20039;-78
2022/08/04 01:44:36;;;;;;;8.45;5.25;;;640.60;1792.00;;;;;;4988870;28;20046;-80
2022/08/04 01:47:02;;;;;;;8.30;4.90;;;640.50;1792.00;;;;;;4972762;28;20106;-80
2022/08/04 01:49:30;;;;;;;10.02;4.60;;;640.50;1792.00;;;;;;4972640;28;20061;-81
2022/08/04 01:51:57;;;;;;;9.52;5.32;;;640.60;1766.40;;;;;;4974308;28;20031;-81
2022/08/04 01:54:24;;;;;;;8.20;5.47;;;640.40;1792.00;;;;;;4973095;28;20026;-80
2022/08/04 01:56:50;;;;;;;8.07;5.82;;;640.40;1792.00;;;;;;4972642;28;20030;-80
2022/08/04 01:59:21;;;;;;;8.43;6.00;;;640.30;1792.00;;;;;;4989559;28;20027;-79
2022/08/04 02:01:47;;;;;;;6.95;5.32;;;640.30;1792.00;;;;;;4973916;28;20064;-80
2022/08/04 02:04:20;;;;;;;7.93;5.43;;;640.30;1792.00;;;;;;4972344;28;20027;-80
2022/08/04 02:07:10;;;;;;;13.88;5.78;;;640.20;1792.00;;;;;;4972317;28;20125;-80
2022/08/04 02:09:42;;;;;;;8.30;6.10;;;640.20;1817.60;;;;;;4973012;28;20023;-81
2022/08/04 02:12:36;;;;;;;9.25;5.65;;;640.10;1792.00;;;;;;4973531;28;20101;-79
2022/08/04 02:15:23;;;;;;;9.20;5.55;;;640.10;1792.00;;;;;;4973804;28;20037;-82
2022/08/04 02:18:20;;;;;;;13.32;7.47;;;640.20;1792.00;;;;;;4971832;28;20129;-78
2022/08/04 02:20:48;;;;;;;8.98;6.18;;;640.20;1792.00;;;;;;4970606;28;20027;-80
2022/08/04 02:23:22;;;;;;;7.75;5.85;;;640.10;1817.60;;;;;;4973544;28;20074;-82
2022/08/04 02:25:55;;;;;;;11.07;6.47;;;640.00;1817.60;;;;;;4970711;28;20069;-81
2022/08/04 02:28:32;;;;;;;7.35;6.22;;;640.00;1817.60;;;;;;4973761;28;20026;-82
2022/08/04 02:31:12;;;;;;;12.02;5.88;;;615.30;1868.80;;;;;;4974953;28;20472;-81
2022/08/04 02:33:44;;;;;;;8.80;5.80;;;640.00;1868.80;;;;;;4973305;28;20078;-80
2022/08/04 02:36:15;;;;;;;8.27;5.47;;;615.30;1868.80;;;;;;4973322;28;20073;-81
2022/08/04 02:38:53;;;;;;;8.57;5.88;;;615.20;1894.40;;;;;;4974495;28;20027;-80
2022/08/04 02:41:22;;;;;;;6.95;5.80;;;615.30;1868.80;;;;;;4987775;28;20047;-80
2022/08/04 02:43:48;;;;;;;14.00;5.93;;;615.10;1920.00;;;;;;4993577;28;20054;-80
2022/08/04 02:46:19;;;;;;;10.18;6.40;;;615.10;1920.00;;;;;;4993521;28;20042;-80
2022/08/04 02:48:50;;;;;;;11.20;6.45;;;615.10;1945.60;;;;;;4993877;28;20022;-80
2022/08/04 02:51:18;;;;;;;13.38;6.75;;;615.00;1945.60;;;;;;4976378;28;20030;-80
2022/08/04 02:53:45;;;;;;;8.60;6.22;;;615.00;1945.60;;;;;;4993710;28;20029;-80
2022/08/04 02:56:14;;;;;;;17.45;6.75;;;615.10;1971.20;;;;;;4993805;28;20090;-80
2022/08/04 02:58:41;;;;;;;9.55;6.82;;;614.90;1971.20;;;;;;4993469;28;20022;-80
2022/08/04 03:01:07;;;;;;;10.38;6.28;;;614.90;1971.20;;;;;;4993339;28;20027;-80
2022/08/04 03:03:58;;;;;;;10.20;6.25;;;614.90;1945.60;;;;;;4993647;28;20045;-80
2022/08/04 03:06:39;;;;;;;10.40;6.43;;;615.00;1971.20;;;;;;4993708;28;20523;-80
2022/08/04 03:09:35;;;;;;;12.13;6.65;;;615.00;1920.00;;;;;;4980598;28;20027;-80
2022/08/04 03:12:06;;;;;;;10.65;6.47;;;615.00;1945.60;;;;;;4995059;28;20026;-80
2022/08/04 03:15:02;;;;;;;14.80;7.53;;;615.00;1945.60;;;;;;5007846;28;20611;-80
2022/08/04 03:17:52;;;;;;;20.92;7.43;;;614.90;1971.20;;;;;;4997213;28;20074;-81
2022/08/04 03:20:21;;;;;;;10.38;6.10;;;614.80;1971.20;;;;;;4997286;28;20547;-80
2022/08/04 03:23:05;;;;;;;10.02;7.00;;;614.80;1971.20;;;;;;4997337;28;20046;-81
2022/08/04 03:26:28;;;;;;;7.80;6.25;;;614.90;1971.20;;;;;;4997203;28;20027;-80
2022/08/04 03:29:08;;;;;;;18.35;6.40;;;614.80;1971.20;;;;;;4940383;29;20389;-81
2022/08/04 03:31:36;;;;;;;11.32;6.38;;;614.90;1971.20;;;;;;4961328;28;20073;-80
2022/08/04 03:34:16;;;;;;;9.27;6.95;;;614.90;1971.20;;;;;;4970795;28;20042;-82
2022/08/04 03:37:10;;;;;;;7.38;6.47;;;614.80;1996.80;;;;;;4942356;28;20032;-80
2022/08/04 03:40:14;;;;;;;8.93;6.53;;;614.90;1996.80;;;;;;4963527;28;20180;-81
2022/08/04 03:42:48;;;;;;;9.80;6.35;;;614.90;2022.40;;;;;;4908766;29;20565;-80
2022/08/04 03:46:20;;;;;;;12.38;7.28;;;614.80;2048.00;;;;;;4907798;29;20234;-80
2022/08/04 03:49:19;;;;;;;13.02;6.32;;;614.70;2073.60;;;;;;4874480;29;20498;-79
2022/08/04 03:55:02;;;;;;;10.88;6.18;;;614.50;2150.40;;;;;;4880415;29;20084;-80
2022/08/04 03:57:33;;;;;;;10.30;6.22;;;614.60;2124.80;;;;;;4889961;29;20482;-78
2022/08/04 04:00:07;;;;;;;12.35;7.15;;;614.60;2124.80;;;;;;4901353;29;20495;-79
2022/08/04 04:03:00;;;;;;;11.13;6.45;;;614.70;2124.80;;;;;;4907497;29;20040;-81
2022/08/04 04:06:10;;;;;;;9.43;6.43;;;614.70;2124.80;;;;;;4890773;29;20068;-81
2022/08/04 04:08:38;;;;;;;13.10;6.45;;;614.50;2124.80;;;;;;4907858;29;20036;-79
2022/08/04 04:11:16;;;;;;;10.82;6.22;;;614.40;2150.40;;;;;;4906470;29;20583;-77
2022/08/04 04:14:12;;;;;;;9.95;6.15;;;614.60;2150.40;;;;;;4906323;29;20052;-77
2022/08/04 04:17:07;;;;;;;10.55;7.20;;;614.60;2176.00;;;;;;4908058;29;20037;-78
2022/08/04 04:20:09;;;;;;;8.98;6.82;;;614.50;2150.40;;;;;;4975540;28;20034;-79
2022/08/04 04:22:35;;;;;;;15.48;7.18;;;614.50;2176.00;;;;;;5003164;28;20042;-78
2022/08/04 04:25:28;;;;;;;16.38;6.90;;;614.70;2201.60;;;;;;4983125;28;20435;-79
2022/08/04 04:28:22;;;;;;;11.85;5.95;;;614.70;2227.20;;;;;;4963437;28;20109;-78
2022/08/04 04:31:01;;;;;;;17.88;6.90;;;614.70;2201.60;;;;;;4995479;28;20471;-80
2022/08/04 04:33:30;;;;;;;15.73;6.97;;;614.70;2176.00;;;;;;4988187;28;20030;-81
2022/08/04 04:36:10;;;;;;;14.40;6.82;;;614.80;2099.20;;;;;;4983735;28;20022;-78
2022/08/04 04:38:51;;;;;;;16.75;8.40;;;614.90;2073.60;;;;;;4995851;28;20042;-80
2022/08/04 04:41:45;;;;;;;11.32;7.20;;;615.00;2073.60;;;;;;4995617;28;20096;-79
2022/08/04 04:44:29;;;;;;;9.52;6.57;;;615.10;2073.60;;;;;;4985033;28;20109;-77
2022/08/04 04:47:04;;;;;;;8.73;6.93;;;615.20;2073.60;;;;;;4981988;28;20045;-79
2022/08/04 04:49:43;;;;;;;12.05;5.90;;;615.30;2048.00;;;;;;5004095;28;20101;-79
2022/08/04 04:52:17;;;;;;;9.10;5.40;;;640.00;2048.00;;;;;;4994028;28;20105;-79
2022/08/04 04:55:06;;;;;;;13.57;6.38;;;640.00;2048.00;;;;;;5005693;28;20384;-79
2022/08/04 04:57:36;;;;;;;17.55;6.65;;;640.10;2022.40;;;;;;5005597;28;20076;-78
2022/08/04 05:00:08;;;;;;;12.02;6.55;;;640.10;2022.40;;;;;;4995444;28;20101;-79
2022/08/04 05:02:33;;;;;;;10.23;5.85;;;640.10;1971.20;;;;;;4977371;28;20220;-77
2022/08/04 05:05:11;;;;;;;9.32;5.70;;;640.20;1945.60;;;;;;5003787;28;20643;-80
2022/08/04 05:08:14;;;;;;;8.95;5.63;;;640.40;1920.00;;;;;;4998824;28;20031;-78
2022/08/04 05:11:02;;;;;;;8.40;5.20;;;640.50;1868.80;;;;;;4977747;28;20484;-81
2022/08/04 05:13:44;;;;;;;9.63;4.75;;;640.50;1894.40;;;;;;4993472;28;20034;-79
2022/08/04 05:16:19;;;;;;;11.93;5.90;;;640.60;1868.80;;;;;;5005106;28;20025;-77
2022/08/04 05:18:51;;;;;;;7.78;4.95;;;640.60;1868.80;;;;;;5002779;28;20018;-77
2022/08/04 05:21:41;;;;;;;15.07;5.85;;;640.70;1868.80;;;;;;4997516;28;20034;-79
2022/08/04 05:24:11;;;;;;;8.70;5.00;;;640.80;1843.20;;;;;;4995082;28;20032;-80
2022/08/04 05:26:44;;;;;;;8.93;5.60;;;640.80;1868.80;;;;;;4993420;28;20472;-79
2022/08/04 05:29:17;;;;;;;8.90;5.20;;;640.90;1843.20;;;;;;4986144;28;20054;-76
2022/08/04 05:31:50;;;;;;;9.52;6.78;;;665.60;1868.80;;;;;;4992226;28;20432;-76
2022/08/04 05:34:22;;;;;;;7.40;5.75;;;665.60;1868.80;;;;;;4987422;28;20026;-76
2022/08/04 05:37:06;;;;;;;6.72;4.90;;;665.60;1843.20;;;;;;4979496;28;20018;-74
2022/08/04 05:39:43;;;;;;;7.60;5.10;;;665.90;1817.60;;;;;;4988675;28;20026;-78
2022/08/04 05:42:10;;;;;;;8.23;4.28;;;666.00;1817.60;;;;;;5006788;28;20045;-81
2022/08/04 05:44:37;;;;;;;5.50;4.30;;;666.10;1792.00;;;;;;4987827;28;20066;-76
2022/08/04 05:47:05;;;;;;;7.82;4.50;;;666.30;1792.00;;;;;;4997027;28;20048;-77
2022/08/04 05:49:32;;;;;;;8.32;4.20;;;666.20;1766.40;;;;;;4984534;28;20029;-79
2022/08/04 05:52:03;;;;;;;11.32;4.45;;;666.20;1740.80;;;;;;4993045;28;20109;-79
2022/08/04 05:54:34;;;;;;;7.35;4.05;;;666.40;1715.20;;;;;;4994537;28;20058;-81
2022/08/04 05:57:03;;;;;;;9.25;4.38;;;666.50;1715.20;;;;;;4979693;28;20044;-82
2022/08/04 05:59:31;;;;;;;6.40;3.80;;;691.20;1715.20;;;;;;4976957;28;20035;-81
2022/08/04 06:01:58;;;;;;;5.68;3.92;;;691.30;1689.60;;;;;;4990695;28;20173;-81
2022/08/04 06:04:30;;;;;;;7.13;4.13;;;691.30;1689.60;;;;;;4976935;28;20101;-81
2022/08/04 06:06:56;;;;;;;5.70;4.10;;;691.60;1664.00;;;;;;4976839;28;20026;-81
2022/08/04 06:09:22;;;;;;;5.20;3.70;;;691.60;1638.40;;;;;;4977049;28;20021;-81
2022/08/04 06:11:51;;;;;;;6.10;4.00;;;691.60;1612.80;;;;;;4976688;28;20026;-81
2022/08/04 06:14:20;;;;;;;8.00;3.80;;;691.70;1612.80;;;;;;4993993;28;20029;-81
2022/08/04 06:16:48;;;;;;;6.03;3.67;;;691.90;1612.80;;;;;;4981773;28;20042;-83
2022/08/04 06:19:16;;;;;;;7.28;3.20;;;692.00;1587.20;;;;;;4977502;28;20030;-79
2022/08/04 06:21:47;;;;;;;4.88;3.35;;;692.10;1561.60;;;;;;5008750;28;20042;-83
2022/08/04 06:24:17;;;;;;;8.05;3.80;;;692.10;1561.60;;;;;;4979473;28;20018;-84
2022/08/04 06:26:44;;;;;;;5.53;3.70;;;716.90;1587.20;;;;;;4976706;28;20157;-83
2022/08/04 06:29:23;;;;;;;6.50;3.70;;;716.90;1561.60;;;;;;4978118;28;20472;-84
2022/08/04 06:32:01;;;;;;;6.18;4.15;;;717.10;1536.00;;;;;;4987541;28;20022;-84
2022/08/04 06:34:27;;;;;;;6.05;3.35;;;717.10;1536.00;;;;;;4982394;28;20026;-84
2022/08/04 06:36:55;;;;;;;7.45;3.88;;;717.30;1536.00;;;;;;4985121;28;20070;-82
2022/08/04 06:39:23;;;;;;;5.22;3.90;;;717.40;1510.40;;;;;;4976673;28;20018;-83
2022/08/04 06:41:51;;;;;;;4.97;3.60;;;717.40;1484.80;;;;;;4976521;28;20100;-84
2022/08/04 06:44:18;;;;;;;3.63;3.30;;;717.40;1484.80;;;;;;4976613;28;20042;-83
2022/08/04 06:46:44;;;;;;;9.60;3.53;;;717.50;1484.80;;;;;;4993414;28;20027;-82
2022/08/04 06:49:12;;;;;;;4.80;3.75;;;717.70;1484.80;;;;;;4976546;28;20046;-83
2022/08/04 06:51:39;;;;;;;8.10;3.80;;;742.40;1510.40;;;;;;4993857;28;20081;-84
2022/08/04 06:54:05;;;;;;;6.90;3.70;;;742.50;1484.80;;;;;;4994016;28;20027;-83
2022/08/04 06:56:33;;;;;;;7.90;3.65;;;742.50;1510.40;;;;;;4976599;28;20053;-85
2022/08/04 06:59:01;;;;;;;5.05;3.45;;;742.50;1484.80;;;;;;4976263;28;20022;-82
2022/08/04 07:01:28;;;;;;;4.75;3.75;;;742.60;1459.20;;;;;;4976164;28;20520;-82
2022/08/04 07:03:54;;;;;;;6.55;3.22;;;742.80;1459.20;;;;;;4993624;28;20535;-82
2022/08/04 07:06:24;;;;;;;4.47;3.15;;;742.80;1433.60;;;;;;4993703;28;20019;-82
2022/08/04 07:08:51;;;;;;;5.65;3.40;;;742.90;1433.60;;;;;;4976158;28;20046;-84
2022/08/04 07:11:18;;;;;;;6.45;3.47;;;743.00;1408.00;;;;;;4976551;28;20029;-85
2022/08/04 07:13:45;;;;;;;5.80;3.40;;;743.10;1408.00;;;;;;4976612;28;20038;-83
2022/08/04 07:16:15;;;;;;;6.50;3.53;;;743.30;1408.00;;;;;;4976590;28;20480;-84
2022/08/04 07:18:41;;;;;;;5.68;3.30;;;743.30;1408.00;;;;;;4993865;28;20018;-83
2022/08/04 07:21:07;;;;;;;6.15;3.78;;;768.10;1382.40;;;;;;4976741;28;20037;-82
2022/08/04 07:23:33;;;;;;;4.80;3.55;;;768.20;1382.40;;;;;;4993713;28;20511;-84
2022/08/04 07:25:59;;;;;;;6.03;3.50;;;768.40;1382.40;;;;;;5001347;28;20034;-83
2022/08/04 07:28:27;;;;;;;12.38;3.78;;;768.40;1356.80;;;;;;4985363;28;20030;-82
2022/08/04 07:30:54;;;;;;;9.55;4.88;;;768.60;1356.80;;;;;;4984447;28;20518;-81
2022/08/04 07:33:20;;;;;;;8.25;3.75;;;768.60;1356.80;;;;;;4978854;28;20100;-83
2022/08/04 07:35:49;;;;;;;5.63;3.70;;;768.70;1331.20;;;;;;4985763;28;20030;-82
2022/08/04 07:38:15;;;;;;;7.70;3.13;;;793.60;1331.20;;;;;;4976436;28;20054;-80
2022/08/04 07:40:41;;;;;;;6.60;3.47;;;793.70;1305.60;;;;;;4975597;28;20093;-81
2022/08/04 07:43:08;;;;;;;8.65;3.25;;;793.70;1305.60;;;;;;4975615;28;20540;-82
2022/08/04 07:45:34;;;;;;;5.05;3.03;;;793.80;1305.60;;;;;;4975879;28;20031;-82
2022/08/04 07:48:03;;;;;;;7.15;3.38;;;793.90;1305.60;;;;;;4975897;28;20034;-81
2022/08/04 07:50:29;;;;;;;8.27;3.63;;;794.10;1280.00;;;;;;4975916;28;20026;-83
2022/08/04 07:52:56;;;;;;;6.35;3.03;;;794.20;1280.00;;;;;;4975781;28;20388;-83
2022/08/04 07:55:22;;;;;;;4.75;3.25;;;794.20;1254.40;;;;;;4976086;28;20057;-82
2022/08/04 07:57:48;;;;;;;11.60;3.55;;;793.60;1254.40;;;;;;4977361;28;20027;-84
2022/08/04 08:00:14;;;;;;;5.30;3.33;;;794.20;1280.00;;;;;;4979487;28;20018;-83
2022/08/04 08:02:41;;;;;;;6.50;3.53;;;794.30;1280.00;;;;;;4981473;28;20054;-82
2022/08/04 08:05:11;;;;;;;8.98;3.28;;;794.40;1280.00;;;;;;5002417;28;20423;-80
2022/08/04 08:07:37;;;;;;;10.77;3.28;;;819.20;1254.40;;;;;;4990138;28;20030;-76
2022/08/04 08:10:03;;;;;;;2.90;2.42;;;819.30;1228.80;;;;;;5015768;28;20061;-76
2022/08/04 08:12:31;;;;;;;4.85;2.88;;;819.30;1177.60;;;;;;4998392;28;20538;-76
2022/08/04 08:14:58;;;;;;;5.72;3.22;;;819.40;1177.60;;;;;;4996228;28;20065;-75
2022/08/04 08:17:24;;;;;;;5.18;2.55;;;819.40;1177.60;;;;;;4996174;28;20022;-78
2022/08/04 08:19:50;;;;;;;7.15;3.15;;;819.30;1177.60;;;;;;5000814;28;20439;-80
2022/08/04 08:22:16;;;;;;;7.85;2.83;;;819.40;1177.60;;;;;;5007380;28;20499;-76
2022/08/04 08:24:41;;;;;;;4.43;3.08;;;819.60;1152.00;;;;;;5006731;28;20045;-77
2022/08/04 08:27:07;;;;;;;3.67;2.40;;;819.80;1152.00;;;;;;5005155;28;20014;-76
2022/08/04 08:29:34;;;;;;;5.20;3.30;;;819.80;1126.40;;;;;;5005215;28;20124;-76
2022/08/04 08:32:01;;;;;;;5.20;2.90;;;819.80;1126.40;;;;;;4996306;28;20146;-77
2022/08/04 08:34:31;;;;;;;8.30;2.83;;;820.00;1100.80;;;;;;5008333;28;20057;-80
2022/08/04 08:37:05;;;;;;;5.28;2.80;;;819.90;1100.80;;;;;;5005454;28;20081;-82
2022/08/04 08:39:56;;;;;;;4.72;2.65;;;819.60;1100.80;;;;;;4987233;28;20368;-80
2022/08/04 08:42:32;;;;;;;3.45;2.10;;;819.40;1126.40;;;;;;4983146;28;20070;-81
2022/08/04 08:45:16;;;;;;;9.82;3.50;;;819.50;1126.40;;;;;;4995833;28;20027;-80
2022/08/04 08:47:50;;;;;;;4.63;2.88;;;819.60;1126.40;;;;;;4986918;28;20105;-79
2022/08/04 08:50:50;;;;;;;3.33;2.60;;;819.80;1100.80;;;;;;5004161;28;20073;-79
2022/08/04 08:53:37;;;;;;;5.13;2.60;;;819.90;1100.80;;;;;;5005684;28;20030;-79
2022/08/04 08:56:34;;;;;;;7.95;2.88;;;820.00;1075.20;;;;;;5004414;28;20046;-79
2022/08/04 08:59:05;;;;;;;6.65;2.38;;;820.10;1049.60;;;;;;5001549;28;20077;-78
2022/08/04 09:01:58;;;;;;;5.57;3.10;;;844.80;1100.80;;;;;;5004185;28;20037;-79
2022/08/04 09:04:45;;;;;;;4.55;2.15;;;844.90;1100.80;;;;;;5000116;28;20077;-79
2022/08/04 09:07:37;;;;;;;3.33;2.33;;;844.90;1049.60;;;;;;5000940;28;20483;-81
2022/08/04 09:10:25;;;;;;;3.72;2.58;;;844.90;1049.60;;;;;;4942968;28;20050;-80
2022/08/04 09:13:04;;;;;;;3.50;2.53;;;844.90;1049.60;;;;;;4956040;28;20023;-79
2022/08/04 09:15:54;;;;;;;5.53;2.35;;;845.10;1049.60;;;;;;4964133;28;20520;-79
2022/08/04 09:18:25;;;;;;;3.25;2.40;;;845.20;1049.60;;;;;;4962667;28;20110;-82
2022/08/04 09:20:59;;;;;;;4.45;2.83;;;845.40;1049.60;;;;;;4962670;28;20074;-79
2022/08/04 09:23:37;;;;;;;5.40;2.78;;;845.40;1024.00;;;;;;4947412;28;20170;-79
2022/08/04 09:26:08;;;;;;;9.02;3.55;;;845.40;998.40;;;;;;4963310;28;20505;-81
2022/08/04 09:29:03;;;;;;;5.18;3.10;;;845.50;998.40;;;;;;4962237;28;20039;-79
2022/08/04 09:31:47;;;;;;;6.85;3.25;;;845.60;1024.00;;;;;;4953437;28;20526;-79
2022/08/04 09:34:36;;;;;;;7.30;6.53;;;870.40;1024.00;;;;;;4953888;28;20433;-79
2022/08/04 09:37:12;;;;;;;5.35;3.15;;;870.60;998.40;;;;;;4954038;28;20035;-79
2022/08/04 09:39:42;;;;;;;4.53;3.17;;;870.70;972.80;;;;;;4953740;28;20032;-81
2022/08/04 09:42:07;;;;;;;6.80;3.13;;;870.60;972.80;;;;;;4953550;28;20081;-78
2022/08/04 09:44:46;;;;;;;6.15;2.95;;;870.80;972.80;;;;;;4953949;28;20070;-78
2022/08/04 09:47:16;;;;;;;6.75;3.10;;;870.80;947.20;;;;;;4975799;28;20057;-79
2022/08/04 09:50:21;;;;;;;7.20;3.30;;;871.00;947.20;;;;;;4992470;28;20113;-78
2022/08/04 09:53:02;;;;;;;19.80;3.90;;;871.10;947.20;;;;;;4978172;28;20129;-76
2022/08/04 09:55:56;;;;;;;6.95;3.22;;;871.10;947.20;;;;;;4991369;28;20038;-80
2022/08/04 09:58:27;;;;;;;5.82;3.42;;;871.30;947.20;;;;;;4992439;28;20078;-84
2022/08/04 10:01:03;;;;;;;4.25;3.10;;;871.30;947.20;;;;;;4984298;28;20028;-80
2022/08/04 10:03:34;;;;;;;5.65;3.30;;;896.00;921.60;;;;;;4987845;28;20543;-82
2022/08/04 10:06:13;;;;;;;4.43;3.40;;;896.20;921.60;;;;;;4992242;28;20117;-81
2022/08/04 10:09:11;;;;;;;5.22;3.40;;;896.30;921.60;;;;;;4989740;28;20031;-80
2022/08/04 10:12:11;;;;;;;4.05;3.20;;;896.20;921.60;;;;;;4981552;28;20026;-84
2022/08/04 10:15:10;;;;;;;9.80;3.00;;;871.30;972.80;;;;;;4976900;28;20171;-84
2022/08/04 10:18:08;;;;;;;4.30;3.03;;;896.30;947.20;;;;;;4976563;28;20109;-81
2022/08/04 10:21:09;;;;;;;9.10;2.90;;;896.80;921.60;;;;;;4994102;28;20084;-85
2022/08/04 10:23:48;;;;;;;5.20;3.13;;;896.80;896.00;;;;;;4981271;28;20053;-86
2022/08/04 10:26:41;;;;;;;6.47;2.90;;;896.10;921.60;;;;;;4994087;28;20022;-83
2022/08/04 10:29:16;;;;;;;5.28;3.10;;;871.10;947.20;;;;;;4976939;28;20030;-83
2022/08/04 10:31:59;;;;;;;7.50;3.17;;;871.10;972.80;;;;;;4976685;28;20056;-82
2022/08/04 10:34:38;;;;;;;7.35;3.63;;;871.30;947.20;;;;;;4994188;28;20048;-82
2022/08/04 10:37:16;;;;;;;4.43;3.25;;;896.20;972.80;;;;;;4992997;28;20026;-82
2022/08/04 10:43:02;;;;;;;5.78;3.10;;;896.30;921.60;;;;;;4988048;28;20558;-81
2022/08/04 10:45:38;;;;;;;5.43;2.72;;;896.00;947.20;;;;;;4977173;28;20181;-85
2022/08/04 10:48:19;;;;;;;4.32;2.83;;;896.20;921.60;;;;;;4976379;28;20029;-81
2022/08/04 10:50:57;;;;;;;6.13;3.38;;;896.80;896.00;;;;;;4976668;28;20472;-80
2022/08/04 10:53:25;;;;;;;4.35;3.25;;;921.70;921.60;;;;;;4993811;28;20042;-81
2022/08/04 10:56:02;;;;;;;4.20;3.38;;;922.00;896.00;;;;;;4989363;28;20025;-81
2022/08/04 10:58:36;;;;;;;3.40;2.80;;;922.20;870.40;;;;;;5013337;28;20026;-88
2022/08/04 11:01:12;;;;;;;4.60;3.30;;;922.40;870.40;;;;;;4977915;28;20077;-83
2022/08/04 11:03:48;;;;;;;5.20;3.10;;;922.50;896.00;;;;;;4982668;28;20046;-83
2022/08/04 11:06:14;;;;;;;4.32;2.70;;;922.50;896.00;;;;;;4978474;28;20022;-85
2022/08/04 11:09:02;;;;;;;4.43;3.10;;;922.50;896.00;;;;;;4974422;28;20484;-79
2022/08/04 11:12:05;;;;;;;7.10;3.40;;;947.60;870.40;;;;;;5003543;28;20108;-82
2022/08/04 11:15:00;;;;;;;4.43;2.70;;;947.50;870.40;;;;;;4971904;28;20153;-82
2022/08/04 11:17:35;;;;;;;3.60;2.80;;;947.50;896.00;;;;;;4949688;28;20117;-82
2022/08/04 11:20:06;;;;;;;5.40;3.13;;;922.30;870.40;;;;;;4971707;28;20030;-80
2022/08/04 11:22:41;;;;;;;4.50;3.00;;;947.40;896.00;;;;;;4971802;28;20046;-80
2022/08/04 11:25:16;;;;;;;8.45;3.05;;;947.80;896.00;;;;;;4971926;28;20046;-80
2022/08/04 11:27:49;;;;;;;;;;;948.10;870.40;;;;;;4972226;28;20034;-81
2022/08/04 11:30:16;;;;;;;5.03;3.20;;;948.10;870.40;;;;;;4969692;28;19914;-81
2022/08/04 11:33:03;;;;;;;3.67;2.92;;;948.10;870.40;;;;;;4972498;28;20049;-81
2022/08/04 11:35:34;;;;;;;6.95;3.45;;;972.80;870.40;;;;;;4975058;28;20034;-80
2022/08/04 11:38:30;;;;;;;4.75;3.00;;;973.10;870.40;;;;;;4974963;28;20492;-80
2022/08/04 11:41:00;;;;;;;7.22;3.20;;;973.00;870.40;;;;;;4973921;28;20054;-81
2022/08/04 11:43:43;;;;;;;4.47;2.92;;;973.10;870.40;;;;;;4956183;28;20035;-81
2022/08/04 11:46:17;;;;;;;8.75;3.47;;;973.10;896.00;;;;;;4974822;28;20070;-81
2022/08/04 11:49:01;;;;;;;5.40;3.05;;;948.10;844.80;;;;;;4956073;28;20114;-80
2022/08/04 11:51:28;;;;;;;4.72;3.13;;;947.50;870.40;;;;;;4987999;28;20125;-79
2022/08/04 11:53:55;;;;;;;4.50;2.90;;;922.30;896.00;;;;;;4987457;28;20033;-81
2022/08/04 11:56:21;;;;;;;5.43;3.08;;;922.00;870.40;;;;;;4987147;28;20122;-80
2022/08/04 11:58:47;;;;;;;5.18;3.38;;;921.60;870.40;;;;;;4988660;28;20132;-80
2022/08/04 12:01:33;;;;;;;5.40;3.35;;;896.90;870.40;;;;;;5004550;28;20468;-79
2022/08/04 12:04:15;;;;;;;5.88;3.35;;;896.50;870.40;;;;;;5004159;28;20045;-80
2022/08/04 12:06:57;;;;;;;5.30;3.05;;;896.50;870.40;;;;;;4989191;28;20065;-79
2022/08/04 12:09:47;;;;;;;6.65;3.20;;;896.40;844.80;;;;;;5002170;28;20058;-80
2022/08/04 12:12:31;;;;;;;4.68;3.25;;;922.00;896.00;;;;;;5005813;28;20460;-80
2022/08/04 12:15:03;;;;;;;6.90;3.13;;;922.50;870.40;;;;;;5006721;28;20128;-80
2022/08/04 12:17:39;;;;;;;4.13;3.22;;;947.30;870.40;;;;;;5005225;28;20024;-79
2022/08/04 12:20:09;;;;;;;4.10;3.13;;;947.20;870.40;;;;;;4984649;28;20399;-79
2022/08/04 12:22:40;;;;;;;3.83;3.33;;;922.50;870.40;;;;;;5004841;28;20032;-78
2022/08/04 12:25:14;;;;;;;7.50;2.80;;;947.30;870.40;;;;;;5005848;28;20068;-81
2022/08/04 12:28:36;;;;;;;4.22;3.20;;;947.80;844.80;;;;;;4988877;28;20037;-81
2022/08/04 12:31:17;;;;;;;7.15;3.22;;;948.10;844.80;;;;;;4970990;28;20141;-79
2022/08/04 12:34:03;;;;;;;4.72;3.13;;;973.00;870.40;;;;;;4973620;28;20034;-81
2022/08/04 12:36:54;;;;;;;6.80;3.10;;;973.10;844.80;;;;;;4967173;28;20408;-80
2022/08/04 12:39:21;;;;;;;3.67;3.20;;;973.10;844.80;;;;;;4973453;28;20158;-78
2022/08/04 12:42:11;;;;;;;4.88;3.47;;;973.20;844.80;;;;;;4973568;28;20051;-80
2022/08/04 12:44:38;;;;;;;6.63;3.58;;;;;;;;;;4972181;28;20039;-80
2022/08/04 12:47:07;;;;;;;5.03;3.70;;;973.40;819.20;;;;;;4973422;28;20027;-80
2022/08/04 12:49:36;;;;;;;8.15;3.55;;;973.40;819.20;;;;;;4973637;28;20049;-79
2022/08/04 12:52:06;;;;;;;5.55;3.72;;;973.40;793.60;;;;;;4973817;28;20025;-80
2022/08/04 12:54:35;;;;;;;3.97;3.05;;;973.40;768.00;;;;;;4957111;28;20055;-80
2022/08/04 12:57:05;;;;;;;4.60;3.25;;;973.40;768.00;;;;;;4971065;28;20023;-79
2022/08/04 12:59:43;;;;;;;7.32;3.20;;;973.60;768.00;;;;;;4973634;28;20037;-80
2022/08/04 13:02:28;;;;;;;4.10;3.60;;;973.60;793.60;;;;;;4973175;28;20073;-84
2022/08/04 13:04:58;;;;;;;4.97;3.35;;;973.40;793.60;;;;;;4972326;28;20110;-81
2022/08/04 13:07:27;;;;;;;4.28;3.33;;;973.20;793.60;;;;;;4970194;28;20061;-81
2022/08/04 13:09:53;;;;;;;4.55;3.60;;;973.30;819.20;;;;;;5000818;28;20483;-80
2022/08/04 13:12:22;;;;;;;4.13;3.03;;;973.60;793.60;;;;;;4986309;28;20069;-79